Time;durP1;ratioP1;P1;durP2;ratioP2;P2;SDS_P1;SDS_P2;PMS_P1;PMS_P2;Temp;Humidity;BMP_temperature;BMP_pressure;BME280_temperature;BME280_humidity;BME280_pressure;Samples;Min_cycle;Max_cycle;Signal;HPM_P1;HPM_P2
2022/11/30 00:01:16;;;;;;;8.18;4.53;;;;;;;2.11;73.10;101974.56;1800846;79;21093;-71
2022/11/30 00:03:43;;;;;;;7.90;4.15;;;;;;;2.10;73.12;101972.89;1801348;79;21149;-72
2022/11/30 00:06:13;;;;;;;7.25;4.17;;;;;;;2.12;73.17;101971.42;1790067;79;21004;-72
2022/11/30 00:08:39;;;;;;;7.85;4.37;;;;;;;2.13;73.12;101965.16;1801189;79;21544;-72
2022/11/30 00:11:15;;;;;;;8.20;5.08;;;;;;;2.15;73.09;101961.87;1799920;78;21246;-72
2022/11/30 00:13:41;;;;;;;8.18;4.42;;;;;;;2.20;73.05;101966.63;1795160;79;21030;-71
2022/11/30 00:16:08;;;;;;;9.93;4.90;;;;;;;2.19;73.06;101967.62;1800233;79;21050;-72
2022/11/30 00:31:21;;;;;;;6.90;4.40;;;;;;;2.72;72.23;101956.94;1783836;80;22620;-76
2022/11/30 00:33:47;;;;;;;6.47;4.10;;;;;;;2.66;71.99;101953.16;1788869;80;20971;-76
2022/11/30 00:36:17;;;;;;;7.70;4.05;;;;;;;2.59;71.84;101953.52;1787663;80;21814;-75
2022/11/30 00:38:44;;;;;;;7.12;4.10;;;;;;;2.55;71.77;101952.22;1777177;80;21279;-74
2022/11/30 00:41:11;;;;;;;6.92;3.80;;;;;;;2.53;71.54;101957.68;1788213;80;20880;-74
2022/11/30 00:43:37;;;;;;;7.85;4.37;;;;;;;2.45;71.46;101959.00;1788873;80;21054;-74
2022/11/30 00:46:04;;;;;;;7.70;4.00;;;;;;;2.42;71.52;101954.56;1788670;80;21004;-74
2022/11/30 00:48:31;;;;;;;7.30;4.00;;;;;;;2.44;71.49;101953.91;1788669;80;21253;-74
2022/11/30 00:50:58;;;;;;;7.70;4.00;;;;;;;2.45;70.37;101955.05;1789033;80;20975;-74
2022/11/30 00:53:24;;;;;;;8.05;4.00;;;;;;;2.32;69.91;101953.44;1787065;80;21421;-75
2022/11/30 00:55:51;;;;;;;9.13;4.10;;;;;;;2.24;70.00;101954.28;1761387;80;21003;-74
2022/11/30 00:58:18;;;;;;;6.95;3.80;;;;;;;2.23;69.98;101947.84;1789095;80;20983;-74
2022/11/30 01:00:45;;;;;;;7.17;3.72;;;;;;;2.31;69.57;101953.11;1788638;80;21143;-74
2022/11/30 01:03:12;;;;;;;7.17;3.55;;;;;;;2.19;69.36;101945.22;1788792;80;20952;-74
2022/11/30 01:05:38;;;;;;;6.72;3.33;;;;;;;2.13;69.17;101943.25;1788355;80;20983;-74
2022/11/30 01:08:07;;;;;;;7.80;3.72;;;;;;;2.08;69.07;101939.30;1789008;80;21006;-74
2022/11/30 01:10:35;;;;;;;7.53;3.47;;;;;;;2.06;69.07;101938.64;1784752;80;20961;-74
2022/11/30 01:13:02;;;;;;;6.15;3.30;;;;;;;2.07;69.03;101937.67;1760788;80;21165;-74
2022/11/30 01:15:29;;;;;;;7.33;3.70;;;;;;;2.01;68.40;101931.74;1790000;80;21073;-74
2022/11/30 01:17:57;;;;;;;6.95;3.47;;;;;;;2.10;67.95;101937.31;1791944;80;21020;-73
2022/11/30 01:20:24;;;;;;;7.20;3.22;;;;;;;2.07;67.82;101937.67;1769861;80;20967;-73
2022/11/30 01:22:50;;;;;;;6.53;3.52;;;;;;;2.00;68.04;101933.21;1788922;80;20999;-74
2022/11/30 01:25:17;;;;;;;7.70;3.50;;;;;;;1.31;69.44;101928.24;1785697;80;21144;-74
2022/11/30 01:27:47;;;;;;;5.83;3.20;;;;;;;1.83;68.69;101931.91;1776389;80;21502;-74
2022/11/30 01:30:14;;;;;;;7.65;3.50;;;;;;;1.94;68.29;101920.23;1758931;80;20959;-74
2022/11/30 01:32:41;;;;;;;7.45;3.58;;;;;;;1.97;67.87;101919.87;1783999;80;20941;-74
2022/11/30 01:35:08;;;;;;;6.00;3.27;;;;;;;1.98;67.58;101908.36;1786404;80;20944;-74
2022/11/30 01:37:35;;;;;;;7.83;3.42;;;;;;;1.99;67.50;101914.45;1786719;80;21144;-74
2022/11/30 01:40:01;;;;;;;6.90;3.70;;;;;;;1.99;67.17;101920.53;1786061;80;21178;-75
2022/11/30 01:42:28;;;;;;;7.95;3.98;;;;;;;1.95;66.94;101912.64;1765852;80;21008;-75
2022/11/30 01:44:56;;;;;;;6.60;3.65;;;;;;;1.93;66.95;101923.83;1761146;80;21344;-75
2022/11/30 01:47:35;;;;;;;7.12;3.50;;;;;;;1.94;67.01;101927.28;1788351;80;21497;-74
2022/11/30 01:50:19;;;;;;;8.13;4.45;;;;;;;1.94;67.10;101937.36;1784568;80;21252;-73
2022/11/30 01:52:49;;;;;;;7.12;4.00;;;;;;;1.94;67.11;101945.27;1757056;81;21042;-73
2022/11/30 01:55:29;;;;;;;6.95;3.55;;;;;;;1.95;66.93;101944.77;1757132;81;20987;-74
2022/11/30 01:58:15;;;;;;;6.33;3.25;;;;;;;1.92;66.87;101939.33;1757215;81;20991;-74
2022/11/30 02:00:45;;;;;;;8.28;3.55;;;;;;;1.91;66.76;101955.28;1779662;80;21016;-74
2022/11/30 02:03:22;;;;;;;6.83;3.58;;;;;;;1.88;66.34;101952.50;1777138;80;21180;-74
2022/11/30 02:05:49;;;;;;;7.10;3.25;;;;;;;1.82;66.15;101947.89;1788025;80;20945;-74
2022/11/30 02:08:16;;;;;;;7.65;4.03;;;;;;;1.80;66.13;101951.17;1757653;80;21011;-74
2022/11/30 02:10:47;;;;;;;6.90;3.60;;;;;;;1.78;66.21;101948.72;1788091;80;21498;-74
2022/11/30 02:13:58;;;;;;;5.87;3.42;;;;;;;1.77;66.01;101943.09;1787560;80;20952;-74
2022/11/30 02:17:04;;;;;;;6.92;3.47;;;;;;;1.74;65.89;101945.24;1757400;80;21210;-73
2022/11/30 02:20:07;;;;;;;6.83;3.50;;;;;;;1.73;65.92;101939.16;1769217;80;21036;-74
2022/11/30 02:23:19;;;;;;;8.00;3.70;;;;;;;1.75;65.92;101945.09;1771715;80;21596;-73
2022/11/30 02:26:31;;;;;;;7.62;3.10;;;;;;;1.72;65.83;101942.78;1776761;80;21102;-73
2022/11/30 02:29:24;;;;;;;7.87;3.62;;;;;;;1.83;65.45;101937.67;1756736;81;21027;-73
2022/11/30 02:32:05;;;;;;;6.78;3.40;;;;;;;1.69;65.50;101947.56;1755577;81;21127;-74
2022/11/30 02:34:33;;;;;;;6.85;3.27;;;;;;;1.66;65.47;101957.92;1756957;80;21330;-73
2022/11/30 02:37:00;;;;;;;6.90;3.35;;;;;;;1.65;65.56;101954.97;1746197;79;20949;-72
2022/11/30 02:39:26;;;;;;;8.30;3.70;;;;;;;1.63;65.74;101954.30;1756856;81;21078;-73
2022/11/30 02:41:53;;;;;;;7.80;3.30;;;;;;;1.63;65.82;101954.30;1756930;81;21098;-73
2022/11/30 02:44:20;;;;;;;7.20;3.10;;;;;;;1.62;65.95;101953.48;1757630;80;21249;-76
2022/11/30 02:47:19;;;;;;;7.17;3.20;;;;;;;1.59;65.54;101949.03;1757218;81;21004;-74
2022/11/30 02:50:00;;;;;;;6.15;3.22;;;;;;;1.56;65.37;101951.49;1756926;81;21011;-73
2022/11/30 02:52:28;;;;;;;6.70;3.30;;;;;;;1.52;65.01;101958.58;1760002;80;20993;-73
2022/11/30 02:55:05;;;;;;;6.70;3.27;;;;;;;1.50;64.95;101953.95;1776729;80;21428;-74
2022/11/30 02:57:33;;;;;;;6.67;3.22;;;;;;;1.48;65.05;101953.28;1788155;80;21527;-72
2022/11/30 03:00:01;;;;;;;6.87;3.80;;;;;;;1.49;65.22;101951.00;1786349;80;20948;-74
2022/11/30 03:02:27;;;;;;;6.03;3.30;;;;;;;1.52;65.30;101934.87;1781559;80;21058;-74
2022/11/30 03:04:54;;;;;;;5.97;3.30;;;;;;;1.56;65.30;101940.96;1756913;81;20971;-74
2022/11/30 03:07:21;;;;;;;8.38;3.62;;;;;;;1.58;65.20;101930.25;1757098;81;20991;-73
2022/11/30 03:09:47;;;;;;;6.87;3.47;;;;;;;1.56;65.06;101938.83;1757739;80;21186;-73
2022/11/30 03:12:13;;;;;;;6.45;3.15;;;;;;;1.54;64.75;101929.75;1719361;82;21467;-75
2022/11/30 03:14:40;;;;;;;5.67;2.92;;;;;;;1.53;64.76;101934.70;1765957;80;21095;-73
2022/11/30 03:17:07;;;;;;;6.22;3.20;;;;;;;1.51;64.71;101937.98;1739329;81;20981;-73
2022/11/30 03:19:33;;;;;;;7.75;3.72;;;;;;;1.51;64.68;101934.53;1738597;81;20979;-75
2022/11/30 03:22:00;;;;;;;6.62;3.20;;;;;;;1.46;64.49;101938.16;1787083;80;21204;-74
2022/11/30 03:24:27;;;;;;;6.22;3.17;;;;;;;1.45;64.72;101943.07;1778209;80;20999;-74
2022/11/30 03:26:53;;;;;;;5.97;3.15;;;;;;;1.46;64.88;101943.42;1734919;81;21568;-75
2022/11/30 03:29:21;;;;;;;5.40;2.98;;;;;;;1.49;65.01;101938.66;1759216;81;21028;-76
2022/11/30 03:31:48;;;;;;;6.67;3.35;;;;;;;1.56;65.11;101937.01;1788228;80;21034;-72
2022/11/30 03:34:14;;;;;;;6.12;3.05;;;;;;;1.62;65.14;101949.53;1788099;80;21869;-73
2022/11/30 03:36:41;;;;;;;6.75;3.40;;;;;;;1.62;65.23;101944.27;1788001;80;21023;-74
2022/11/30 03:39:08;;;;;;;7.70;3.83;;;;;;;1.61;65.21;101938.67;1786839;80;21063;-73
2022/11/30 03:41:34;;;;;;;5.97;3.30;;;;;;;1.56;64.75;101940.96;1786397;80;21574;-73
2022/11/30 03:44:01;;;;;;;5.87;3.52;;;;;;;1.51;64.63;101937.16;1775060;80;21069;-73
2022/11/30 03:46:27;;;;;;;7.62;3.30;;;;;;;1.54;64.30;101940.28;1788222;80;21035;-74
2022/11/30 03:48:54;;;;;;;7.22;3.37;;;;;;;1.45;64.30;101942.61;1785848;80;21020;-74
2022/11/30 03:51:21;;;;;;;7.22;3.30;;;;;;;1.43;64.22;101935.84;1786256;80;20948;-74
2022/11/30 03:53:47;;;;;;;6.53;3.27;;;;;;;1.40;64.30;101933.05;1786736;80;20968;-74
2022/11/30 03:56:15;;;;;;;5.37;2.92;;;;;;;1.38;64.24;101935.85;1786277;80;20988;-76
2022/11/30 04:10:53;;;;;;;6.23;3.70;;;;;;;2.01;64.22;101931.74;1827266;77;22696;-73
2022/11/30 04:13:21;;;;;;;8.20;3.55;;;;;;;1.94;64.06;101926.81;1799687;79;21434;-72
2022/11/30 04:15:48;;;;;;;6.37;3.45;;;;;;;1.87;64.00;101933.71;1797875;79;21140;-72
2022/11/30 04:18:16;;;;;;;7.83;4.10;;;;;;;1.81;64.08;101931.73;1792295;78;20991;-73
2022/11/30 04:20:42;;;;;;;7.20;3.92;;;;;;;1.76;64.32;101934.87;1790211;80;21461;-72
2022/11/30 04:23:09;;;;;;;6.72;3.70;;;;;;;1.77;64.26;101932.56;1790969;80;20996;-73
2022/11/30 04:25:38;;;;;;;6.85;3.70;;;;;;;1.70;64.50;101934.71;1790375;80;21486;-73
2022/11/30 04:28:05;;;;;;;7.58;3.60;;;;;;;1.78;64.37;101939.50;1799141;79;21209;-73
2022/11/30 04:30:32;;;;;;;6.40;3.47;;;;;;;1.72;64.43;101936.70;1800246;79;20892;-72
2022/11/30 04:32:59;;;;;;;6.17;3.55;;;;;;;1.61;64.63;101934.72;1797420;79;21001;-72
2022/11/30 04:35:26;;;;;;;6.92;3.65;;;;;;;1.63;64.81;101941.13;1790759;79;20988;-72
2022/11/30 04:37:53;;;;;;;6.08;2.95;;;;;;;1.56;64.99;101947.55;1782869;80;20980;-73
2022/11/30 04:40:20;;;;;;;7.20;3.55;;;;;;;1.54;65.05;101942.10;1783383;79;21596;-73
2022/11/30 04:42:46;;;;;;;6.10;3.27;;;;;;;1.52;65.02;101950.18;1799926;79;20995;-72
2022/11/30 04:45:13;;;;;;;7.75;3.50;;;;;;;1.54;65.05;101947.38;1798381;79;20996;-72
2022/11/30 04:47:41;;;;;;;6.05;3.15;;;;;;;1.50;65.11;101946.88;1800112;79;20949;-71
2022/11/30 04:50:07;;;;;;;6.85;3.65;;;;;;;1.45;65.00;101949.19;1796821;79;20986;-71
2022/11/30 04:52:34;;;;;;;6.03;3.20;;;;;;;1.42;64.88;101952.64;1789377;79;21147;-72
2022/11/30 04:55:03;;;;;;;5.92;3.33;;;;;;;1.42;64.94;101956.09;1789221;79;20936;-72
2022/11/30 04:57:30;;;;;;;7.15;3.58;;;;;;;1.39;64.99;101961.18;1798676;79;20984;-72
2022/11/30 04:59:58;;;;;;;6.67;3.42;;;;;;;1.39;64.98;101958.55;1785182;79;21042;-72
2022/11/30 05:02:25;;;;;;;7.33;3.80;;;;;;;1.41;65.01;101967.59;1780005;80;21027;-72
2022/11/30 05:04:52;;;;;;;7.12;3.30;;;;;;;1.38;64.75;101977.12;1779946;80;21644;-72
2022/11/30 05:07:18;;;;;;;6.78;3.75;;;;;;;1.36;64.86;101971.22;1765329;80;20982;-73
2022/11/30 05:09:45;;;;;;;6.35;3.30;;;;;;;1.36;64.94;101973.34;1750307;80;21027;-72
2022/11/30 05:12:12;;;;;;;6.55;3.50;;;;;;;1.36;65.00;101981.75;1763847;80;21026;-72
2022/11/30 05:14:39;;;;;;;7.37;3.40;;;;;;;1.34;64.92;101979.75;1779488;80;21631;-72
2022/11/30 05:17:06;;;;;;;7.42;3.50;;;;;;;1.29;64.75;101986.01;1780111;80;21252;-72
2022/11/30 05:19:32;;;;;;;6.20;3.55;;;;;;;1.30;64.74;101985.02;1779249;80;21010;-72
2022/11/30 05:21:59;;;;;;;7.37;3.50;;;;;;;1.26;64.45;101990.28;1779801;80;20960;-73
2022/11/30 05:24:26;;;;;;;7.10;3.50;;;;;;;1.25;64.61;101987.29;1782314;80;21023;-72
2022/11/30 05:26:52;;;;;;;6.00;3.37;;;;;;;1.23;64.78;101983.52;1766370;80;20982;-72
2022/11/30 05:29:19;;;;;;;8.30;3.55;;;;;;;1.24;64.73;101995.69;1751719;80;21060;-73
2022/11/30 05:31:45;;;;;;;6.83;3.95;;;;;;;1.19;64.75;101984.01;1779747;80;20939;-73
2022/11/30 05:34:12;;;;;;;7.50;3.72;;;;;;;1.19;64.90;101984.01;1779323;80;21081;-72
2022/11/30 05:36:38;;;;;;;6.50;3.70;;;;;;;1.21;65.06;101989.42;1779957;80;21030;-72
2022/11/30 05:39:05;;;;;;;8.15;4.37;;;;;;;1.23;64.99;101982.70;1778079;80;21046;-73
2022/11/30 05:41:32;;;;;;;6.95;3.72;;;;;;;1.24;64.99;101981.70;1761073;80;21535;-72
2022/11/30 05:43:58;;;;;;;6.90;4.20;;;;;;;1.25;64.94;101989.92;1749960;80;21081;-72
2022/11/30 05:46:25;;;;;;;6.53;3.95;;;;;;;1.23;64.81;101987.96;1748801;82;21055;-73
2022/11/30 05:48:52;;;;;;;8.38;4.20;;;;;;;1.21;64.70;101990.73;1767850;80;21138;-73
2022/11/30 05:51:19;;;;;;;8.00;3.77;;;;;;;1.16;64.38;101983.34;1776610;80;21042;-72
2022/11/30 05:53:46;;;;;;;6.83;3.62;;;;;;;1.09;64.17;101981.51;1777465;79;21779;-70
2022/11/30 05:56:18;;;;;;;7.30;3.80;;;;;;;1.03;64.15;101972.44;1795860;79;21488;-72
2022/11/30 05:58:45;;;;;;;;;;;;;;;1.02;63.80;101987.05;1766790;79;21564;-73
2022/11/30 06:01:21;;;;;;;6.47;4.25;;;;;;;1.03;64.00;101988.72;1754132;79;20426;-73
2022/11/30 06:03:48;;;;;;;7.28;3.70;;;;;;;0.98;64.04;101983.09;1775541;80;21022;-73
2022/11/30 06:06:14;;;;;;;8.58;3.85;;;;;;;0.96;64.00;101981.95;1778595;80;21770;-73
2022/11/30 06:08:41;;;;;;;8.35;3.98;;;;;;;0.97;64.06;101994.61;1779578;80;21548;-73
2022/11/30 06:11:08;;;;;;;7.42;3.80;;;;;;;0.98;64.16;101994.44;1779764;80;20992;-73
2022/11/30 06:13:35;;;;;;;7.17;3.85;;;;;;;1.01;64.33;101994.62;1751450;80;21018;-73
2022/11/30 06:16:01;;;;;;;6.80;3.55;;;;;;;1.03;64.46;101996.11;1772917;80;20982;-73
2022/11/30 06:18:28;;;;;;;8.30;3.92;;;;;;;1.04;64.47;102002.20;1754198;80;21638;-72
2022/11/30 06:21:07;;;;;;;7.60;3.75;;;;;;;1.06;64.48;102005.51;1742724;82;21079;-72
2022/11/30 06:23:35;;;;;;;7.55;3.45;;;;;;;1.07;64.52;101996.62;1747452;80;21576;-72
2022/11/30 06:26:08;;;;;;;6.85;3.45;;;;;;;1.11;64.63;102005.34;1779694;80;21023;-72
2022/11/30 06:28:35;;;;;;;7.15;3.80;;;;;;;1.13;64.69;102002.57;1779531;80;21073;-73
2022/11/30 06:43:38;;;;;;;6.37;4.40;;;;;;;1.73;64.00;102001.05;1835008;77;23208;-69
2022/11/30 06:46:05;;;;;;;11.20;4.75;;;;;;;1.66;63.87;102007.96;1799729;79;20922;-71
2022/11/30 06:48:33;;;;;;;7.50;4.25;;;;;;;1.56;63.76;102016.01;1791554;79;21729;-72
2022/11/30 06:51:00;;;;;;;8.90;4.50;;;;;;;1.56;63.83;102023.09;1773711;79;21463;-72
2022/11/30 06:53:27;;;;;;;7.60;4.40;;;;;;;1.44;63.36;102025.19;1775938;79;21402;-72
2022/11/30 06:55:53;;;;;;;6.72;4.08;;;;;;;1.42;63.04;102031.13;1798131;79;21552;-71
2022/11/30 06:58:20;;;;;;;7.42;4.28;;;;;;;1.36;63.06;102025.18;1788571;79;21086;-71
2022/11/30 07:00:47;;;;;;;7.95;4.20;;;;;;;1.31;63.11;102017.74;1775726;79;21117;-71
2022/11/30 07:03:13;;;;;;;7.30;4.28;;;;;;;1.26;62.91;102028.44;1767797;80;20995;-72
2022/11/30 07:05:43;;;;;;;7.15;4.20;;;;;;;1.19;62.83;102031.38;1777075;79;20962;-72
2022/11/30 07:08:12;;;;;;;9.43;4.75;;;;;;;1.14;62.71;102027.39;1798345;79;20987;-72
2022/11/30 07:10:41;;;;;;;7.30;3.75;;;;;;;1.14;62.93;102034.47;1770010;79;20948;-72
2022/11/30 07:13:13;;;;;;;7.25;3.85;;;;;;;1.17;63.06;102025.77;1798999;79;21217;-71
2022/11/30 07:15:41;;;;;;;6.70;3.80;;;;;;;1.21;63.14;102029.39;1779945;79;21022;-73
2022/11/30 07:18:08;;;;;;;6.72;3.50;;;;;;;1.23;63.24;102032.70;1770959;79;22433;-72
2022/11/30 07:20:35;;;;;;;8.28;4.00;;;;;;;1.24;63.43;102026.45;1789974;79;21430;-71
2022/11/30 07:26:05;;;;;;;8.30;4.00;;;;;;;1.22;63.38;102026.63;1784709;79;21485;-71
2022/11/30 07:28:14;;;;;;;6.95;3.90;;;;;;;1.19;63.49;102039.27;1793159;79;20924;-72
2022/11/30 07:30:41;;;;;;;9.08;4.22;;;;;;;1.20;63.63;102045.69;1799082;79;20978;-72
2022/11/30 07:33:07;;;;;;;10.40;4.92;;;;;;;1.21;63.79;102035.48;1792725;79;20967;-73
2022/11/30 07:35:34;;;;;;;8.98;4.37;;;;;;;1.24;63.95;102037.80;1782439;79;21030;-73
2022/11/30 07:38:02;;;;;;;8.63;4.83;;;;;;;1.30;64.00;102041.61;1781431;79;20956;-71
2022/11/30 07:40:30;;;;;;;8.68;4.37;;;;;;;1.38;64.04;102037.67;1797892;79;21030;-72
2022/11/30 07:42:56;;;;;;;7.53;4.55;;;;;;;1.39;63.58;102039.34;1797593;78;21053;-72
2022/11/30 07:45:23;;;;;;;10.13;4.55;;;;;;;1.39;63.32;102040.66;1832718;78;21046;-72
2022/11/30 07:47:50;;;;;;;7.37;3.83;;;;;;;1.41;62.94;102038.67;1832566;78;21051;-72
2022/11/30 07:50:16;;;;;;;9.95;4.85;;;;;;;1.33;63.17;102043.92;1778548;78;21644;-72
2022/11/30 07:52:43;;;;;;;8.85;5.00;;;;;;;1.31;63.11;102048.02;1798302;79;21023;-73
2022/11/30 07:55:09;;;;;;;8.45;4.75;;;;;;;1.28;63.13;102049.65;1798482;79;20920;-72
2022/11/30 07:57:36;;;;;;;8.50;4.12;;;;;;;1.26;63.21;102043.73;1777044;79;20960;-72
2022/11/30 08:00:03;;;;;;;9.95;4.80;;;;;;;1.28;63.24;102047.52;1778256;78;21575;-73
2022/11/30 08:02:32;;;;;;;8.15;4.60;;;;;;;1.29;63.14;102045.23;1778515;79;21046;-73
2022/11/30 08:04:58;;;;;;;10.55;5.22;;;;;;;1.23;63.00;102041.42;1785954;79;21092;-73
2022/11/30 08:07:25;;;;;;;8.63;5.10;;;;;;;1.22;63.06;102050.77;1775672;79;20952;-73
2022/11/30 08:09:51;;;;;;;11.35;5.35;;;;;;;1.23;62.99;102051.95;1796437;79;21511;-73
2022/11/30 08:12:20;;;;;;;9.00;5.00;;;;;;;1.17;62.83;102040.23;1795700;79;21007;-72
2022/11/30 08:14:50;;;;;;;8.70;5.25;;;;;;;1.15;63.12;102042.69;1770017;79;21562;-73
2022/11/30 08:17:17;;;;;;;9.05;5.55;;;;;;;1.17;63.31;102046.00;1769246;79;21050;-73
2022/11/30 08:19:43;;;;;;;9.73;5.60;;;;;;;1.19;63.46;102038.78;1784041;79;21066;-72
2022/11/30 08:22:11;;;;;;;10.90;5.65;;;;;;;1.21;63.19;102033.34;1780444;79;21101;-73
2022/11/30 08:24:38;;;;;;;10.00;5.78;;;;;;;1.18;63.21;102033.16;1795418;79;21014;-74
2022/11/30 08:27:04;;;;;;;10.30;5.55;;;;;;;1.21;63.42;102038.61;1810663;78;21056;-71
2022/11/30 08:29:31;;;;;;;10.00;5.58;;;;;;;1.24;63.41;102033.03;1763459;79;20988;-72
2022/11/30 09:47:14;;;;;;;11.40;5.97;;;;;;;1.32;67.36;102010.70;1798882;78;22698;-71
2022/11/30 09:49:44;;;;;;;13.15;7.85;;;;;;;1.36;65.98;102015.97;1772683;81;20937;-72
2022/11/30 09:52:25;;;;;;;11.93;6.45;;;;;;;1.32;65.45;102010.70;1768109;80;21067;-72
2022/11/30 09:54:52;;;;;;;11.22;6.30;;;;;;;1.35;64.82;102002.45;1773260;79;21037;-72
2022/11/30 09:57:35;;;;;;;9.93;6.40;;;;;;;1.38;64.26;101994.23;1772432;81;21544;-72
2022/11/30 10:00:13;;;;;;;12.85;5.78;;;;;;;1.39;63.58;101996.72;1772236;81;21001;-72
2022/11/30 10:02:40;;;;;;;12.00;6.17;;;;;;;1.47;63.45;101989.82;1770996;81;21381;-72
2022/11/30 10:05:23;;;;;;;10.60;6.37;;;;;;;1.53;62.51;101983.41;1772254;80;21292;-72
2022/11/30 10:08:30;;;;;;;11.55;5.92;;;;;;;1.55;62.07;101984.09;1772751;81;20926;-72
2022/11/30 10:11:11;;;;;;;11.08;6.42;;;;;;;1.52;61.40;101974.38;1741669;82;20989;-71
2022/11/30 10:13:46;;;;;;;13.35;6.78;;;;;;;1.49;60.99;101979.47;1741889;82;20962;-73
2022/11/30 10:16:53;;;;;;;14.40;7.10;;;;;;;1.52;61.20;101977.01;1741467;82;21088;-72
2022/11/30 14:41:44;;;;;;;12.73;7.03;;;;;;;0.70;65.65;102003.86;1806309;79;23344;-72
2022/11/30 14:44:12;;;;;;;12.90;7.45;;;;;;;0.73;64.90;102002.72;1786516;80;20887;-72
2022/11/30 14:46:39;;;;;;;15.23;7.00;;;;;;;0.74;64.33;102004.36;1779954;80;21179;-72
2022/11/30 14:49:18;;;;;;;17.27;7.25;;;;;;;0.77;63.97;101998.80;1770320;81;21016;-72
2022/11/30 14:51:58;;;;;;;15.28;7.58;;;;;;;0.80;63.60;102007.69;1771306;81;21022;-72
2022/11/30 14:54:45;;;;;;;17.42;8.05;;;;;;;0.82;63.42;102004.88;1771958;81;20946;-71
2022/11/30 14:57:26;;;;;;;18.98;8.75;;;;;;;0.87;63.21;102006.56;1771942;81;20957;-70
2022/11/30 14:59:53;;;;;;;14.98;7.80;;;;;;;0.86;62.79;102009.69;1761485;81;23089;-71
2022/11/30 15:02:25;;;;;;;18.45;8.63;;;;;;;0.82;62.57;102007.52;1771762;81;20918;-71
2022/11/30 15:04:52;;;;;;;17.95;8.78;;;;;;;0.80;62.42;102006.87;1767979;81;21695;-71
2022/11/30 15:07:19;;;;;;;20.00;9.45;;;;;;;0.80;62.31;102014.75;1766536;81;21062;-71
2022/11/30 15:09:47;;;;;;;20.27;9.75;;;;;;;0.83;62.32;102011.32;1766534;81;21093;-71
2022/11/30 15:12:19;;;;;;;21.50;10.82;;;;;;;0.84;62.18;102009.02;1766578;81;21142;-71
2022/11/30 15:15:04;;;;;;;;;;;;;;;0.80;62.06;102008.18;1769049;81;21054;-71
2022/11/30 15:17:31;;;;;;;23.27;9.45;;;;;;;0.75;61.92;102014.39;1720589;83;20170;-71
2022/11/30 15:19:58;;;;;;;26.33;11.93;;;;;;;0.74;61.88;102019.33;1753419;81;21002;-71
2022/11/30 15:22:24;;;;;;;20.65;9.95;;;;;;;0.69;61.89;102016.68;1767100;81;21077;-71
2022/11/30 15:24:51;;;;;;;22.80;10.60;;;;;;;0.65;61.93;102021.07;1769633;81;21095;-70
2022/11/30 15:27:22;;;;;;;19.77;9.93;;;;;;;0.60;61.86;102020.73;1771541;81;21084;-72
2022/11/30 15:29:58;;;;;;;20.85;9.70;;;;;;;0.55;61.87;102023.80;1767369;81;21149;-72
2022/11/30 15:32:25;;;;;;;18.15;9.53;;;;;;;0.50;61.87;102016.06;1741294;82;21501;-72
2022/11/30 15:34:56;;;;;;;18.48;9.40;;;;;;;0.44;61.86;102025.39;1741120;82;21062;-72
2022/11/30 15:37:33;;;;;;;25.27;11.73;;;;;;;0.40;61.86;102026.19;1740550;82;21781;-72
2022/11/30 15:40:02;;;;;;;31.00;15.28;;;;;;;0.45;61.89;102023.08;1727550;83;21071;-72
2022/11/30 15:42:38;;;;;;;26.80;13.28;;;;;;;0.52;61.78;102021.48;1727892;83;21035;-72
2022/11/30 15:45:23;;;;;;;24.05;11.33;;;;;;;0.58;61.71;102023.99;1726246;83;21086;-72
2022/11/30 15:47:50;;;;;;;21.15;10.13;;;;;;;0.58;61.74;102023.99;1727724;83;20987;-71
2022/11/30 15:50:31;;;;;;;17.82;10.50;;;;;;;0.48;61.98;102020.15;1727173;83;21609;-72
2022/11/30 15:53:21;;;;;;;28.50;14.55;;;;;;;0.51;62.03;102015.90;1727682;83;21035;-71
2022/11/30 15:55:55;;;;;;;32.90;18.12;;;;;;;0.57;62.09;102020.54;1727429;82;21529;-71
2022/11/30 15:58:46;;;;;;;30.30;16.48;;;;;;;0.71;61.97;102020.45;1727787;81;20979;-72
2022/11/30 16:01:19;;;;;;;30.37;16.67;;;;;;;0.84;61.79;102014.77;1727527;83;21019;-71
2022/11/30 16:03:59;;;;;;;28.73;16.97;;;;;;;0.91;61.63;102014.47;1727728;83;21557;-71
2022/11/30 16:06:30;;;;;;;32.28;17.98;;;;;;;0.93;61.51;102013.34;1727063;83;21497;-72
2022/11/30 17:29:21;;;;;;;15.40;9.20;;;;;;;0.84;65.81;102006.87;1808862;79;24314;-72
2022/11/30 17:31:47;;;;;;;18.25;9.78;;;;;;;0.88;65.09;102005.58;1817614;79;20927;-71
2022/11/30 17:34:13;;;;;;;18.95;9.58;;;;;;;0.91;64.69;102005.27;1811335;79;21167;-72
2022/11/30 17:36:40;;;;;;;19.00;9.33;;;;;;;0.93;64.31;102005.45;1797804;79;20849;-72
2022/11/30 17:39:07;;;;;;;17.57;9.28;;;;;;;0.97;63.95;102007.27;1816930;79;21024;-72
2022/11/30 17:41:34;;;;;;;17.00;8.95;;;;;;;0.99;63.60;102010.58;1817403;79;20912;-72
2022/11/30 17:44:01;;;;;;;16.77;9.68;;;;;;;0.99;63.35;102000.05;1817189;79;21051;-71
2022/11/30 17:46:28;;;;;;;18.07;9.50;;;;;;;0.99;63.29;101997.42;1817421;79;21150;-73
2022/11/30 17:48:55;;;;;;;19.50;9.10;;;;;;;1.01;63.13;101999.38;1817110;79;21481;-72
2022/11/30 17:51:21;;;;;;;14.70;9.25;;;;;;;1.04;62.87;101996.44;1810377;79;20903;-72
2022/11/30 17:53:48;;;;;;;13.45;7.50;;;;;;;0.90;63.04;101991.79;1785069;80;20975;-72
2022/11/30 17:56:16;;;;;;;19.05;8.90;;;;;;;0.91;62.90;101989.48;1785268;80;21489;-72
2022/11/30 17:58:43;;;;;;;15.93;7.50;;;;;;;0.87;62.79;101989.47;1784787;80;21880;-72
2022/11/30 18:01:24;;;;;;;14.83;7.78;;;;;;;0.88;62.87;101987.16;1785190;80;21030;-72
2022/11/30 18:03:51;;;;;;;16.50;8.73;;;;;;;0.84;62.67;101989.28;1781391;80;21485;-72
2022/11/30 20:22:40;;;;;;;9.10;5.30;;;;;;;1.24;64.61;102047.50;1796319;77;22908;-71
2022/11/30 20:25:08;;;;;;;10.95;4.72;;;;;;;1.23;63.63;102049.81;1805329;77;20994;-71
2022/11/30 20:27:35;;;;;;;10.63;4.80;;;;;;;1.36;62.47;102046.24;1799851;77;21793;-71
2022/11/30 20:30:02;;;;;;;9.33;4.85;;;;;;;1.44;61.98;102049.38;1549435;77;9999988;-72
2022/11/30 20:32:28;;;;;;;8.60;4.28;;;;;;;1.46;61.58;102049.56;1777561;78;20963;-72
2022/11/30 20:34:55;;;;;;;9.93;4.70;;;;;;;1.49;61.20;102045.30;1771558;78;21501;-73
2022/11/30 20:37:22;;;;;;;11.35;4.72;;;;;;;1.38;60.99;102054.78;1767955;80;20915;-72
2022/11/30 20:39:48;;;;;;;10.58;4.28;;;;;;;1.34;60.70;102057.41;1776713;80;21069;-72
2022/11/30 20:42:15;;;;;;;8.60;4.60;;;;;;;1.30;60.67;102062.17;1768759;78;22168;-72
2022/11/30 20:44:43;;;;;;;11.65;5.03;;;;;;;1.30;60.42;102056.09;1773499;78;21089;-73
2022/11/30 20:47:10;;;;;;;9.33;4.40;;;;;;;1.30;60.27;102052.14;1770033;80;21802;-73
2022/11/30 20:49:36;;;;;;;8.90;4.30;;;;;;;1.30;60.17;102056.09;1778677;78;22160;-72
2022/11/30 20:52:03;;;;;;;8.73;4.30;;;;;;;1.29;60.08;102053.13;1775875;80;21042;-72
2022/11/30 20:54:31;;;;;;;9.10;4.00;;;;;;;1.27;60.11;102059.03;1768829;80;21030;-72
2022/11/30 20:56:59;;;;;;;8.98;4.75;;;;;;;1.30;59.79;102052.95;1772674;78;21015;-72
2022/11/30 20:59:25;;;;;;;12.23;4.78;;;;;;;1.32;59.49;102049.69;1776490;78;21269;-72
2022/11/30 21:01:54;;;;;;;9.10;4.12;;;;;;;1.30;59.41;102055.59;1779115;78;21098;-71
2022/11/30 21:04:22;;;;;;;9.13;4.08;;;;;;;1.27;59.27;102055.09;1776108;80;21110;-71
2022/11/30 21:06:48;;;;;;;12.18;4.87;;;;;;;1.33;59.10;102046.06;1771433;78;21520;-72
2022/11/30 21:09:16;;;;;;;9.23;4.53;;;;;;;1.22;59.27;102056.04;1771858;80;21062;-72
2022/11/30 21:11:45;;;;;;;9.10;5.10;;;;;;;1.21;59.41;102059.17;1780146;78;21090;-72
2022/11/30 21:14:12;;;;;;;8.70;4.53;;;;;;;1.26;59.28;102053.45;1772764;78;21053;-72
2022/11/30 21:16:38;;;;;;;8.95;4.20;;;;;;;1.29;59.34;102057.08;1767183;80;21141;-71
2022/11/30 21:19:05;;;;;;;8.85;4.58;;;;;;;1.32;59.17;102055.45;1777737;78;21030;-71
2022/11/30 21:21:34;;;;;;;9.85;4.33;;;;;;;1.33;59.19;102055.77;1773161;78;21042;-70
2022/11/30 21:24:04;;;;;;;9.50;4.47;;;;;;;1.28;59.06;102056.23;1771223;80;21387;-71
2022/11/30 21:26:33;;;;;;;9.55;4.28;;;;;;;1.23;58.98;102059.03;1773977;78;21105;-72
2022/11/30 21:29:06;;;;;;;10.50;4.75;;;;;;;1.22;58.89;102056.89;1753218;80;21595;-72
2022/11/30 21:31:34;;;;;;;8.45;4.42;;;;;;;1.15;58.86;102050.58;1773655;80;21065;-71
2022/11/30 21:34:01;;;;;;;11.48;5.28;;;;;;;1.06;58.82;102052.38;1777691;80;21082;-71
2022/11/30 21:36:28;;;;;;;9.85;4.10;;;;;;;1.02;58.93;102059.41;1781765;80;21189;-71
2022/11/30 21:38:59;;;;;;;8.93;4.65;;;;;;;0.99;59.07;102060.56;1770544;80;21005;-71